sensor_id;sensor_type;location;lat;lon;timestamp;temperature;humidity
18888;DHT22;9576;47.792;9.628;2023-10-31T00:01:11;9.70;99.90
18888;DHT22;9576;47.792;9.628;2023-10-31T00:04:14;9.80;99.90
18888;DHT22;9576;47.792;9.628;2023-10-31T00:07:17;9.80;99.90
18888;DHT22;9576;47.792;9.628;2023-10-31T00:10:19;9.80;99.90
18888;DHT22;9576;47.792;9.628;2023-10-31T00:13:21;9.90;99.90
18888;DHT22;9576;47.792;9.628;2023-10-31T00:16:23;9.90;99.90
18888;DHT22;9576;47.792;9.628;2023-10-31T00:19:27;9.90;99.90
18888;DHT22;9576;47.792;9.628;2023-10-31T00:22:29;9.90;99.90
18888;DHT22;9576;47.792;9.628;2023-10-31T00:25:31;9.90;99.90
18888;DHT22;9576;47.792;9.628;2023-10-31T00:28:33;9.90;99.90
18888;DHT22;9576;47.792;9.628;2023-10-31T00:31:35;9.90;99.90
18888;DHT22;9576;47.792;9.628;2023-10-31T00:34:43;9.90;99.90
18888;DHT22;9576;47.792;9.628;2023-10-31T00:37:45;9.90;99.90
18888;DHT22;9576;47.792;9.628;2023-10-31T00:40:47;9.90;99.90
18888;DHT22;9576;47.792;9.628;2023-10-31T00:43:49;9.90;99.90
18888;DHT22;9576;47.792;9.628;2023-10-31T00:46:51;9.90;99.90
18888;DHT22;9576;47.792;9.628;2023-10-31T00:49:54;9.90;99.90
18888;DHT22;9576;47.792;9.628;2023-10-31T00:52:56;9.90;99.90
18888;DHT22;9576;47.792;9.628;2023-10-31T00:55:59;9.80;99.90
18888;DHT22;9576;47.792;9.628;2023-10-31T00:59:01;9.70;99.90
18888;DHT22;9576;47.792;9.628;2023-10-31T01:02:03;9.70;99.90
18888;DHT22;9576;47.792;9.628;2023-10-31T01:05:08;9.70;99.90
18888;DHT22;9576;47.792;9.628;2023-10-31T01:08:10;9.70;99.90
18888;DHT22;9576;47.792;9.628;2023-10-31T01:11:12;9.60;99.90
18888;DHT22;9576;47.792;9.628;2023-10-31T01:14:14;9.60;99.90
18888;DHT22;9576;47.792;9.628;2023-10-31T01:17:16;9.60;99.90
18888;DHT22;9576;47.792;9.628;2023-10-31T01:20:19;9.60;99.90
18888;DHT22;9576;47.792;9.628;2023-10-31T01:23:22;9.70;99.90
18888;DHT22;9576;47.792;9.628;2023-10-31T01:26:24;9.70;99.90
18888;DHT22;9576;47.792;9.628;2023-10-31T01:29:26;9.70;99.90
18888;DHT22;9576;47.792;9.628;2023-10-31T01:32:28;9.70;99.90
18888;DHT22;9576;47.792;9.628;2023-10-31T01:35:32;9.70;99.90
18888;DHT22;9576;47.792;9.628;2023-10-31T01:38:34;9.80;99.90
18888;DHT22;9576;47.792;9.628;2023-10-31T01:41:36;9.80;99.90
18888;DHT22;9576;47.792;9.628;2023-10-31T01:44:38;9.80;99.90
18888;DHT22;9576;47.792;9.628;2023-10-31T01:47:40;9.80;99.90
18888;DHT22;9576;47.792;9.628;2023-10-31T01:50:44;9.80;99.90
18888;DHT22;9576;47.792;9.628;2023-10-31T01:53:47;9.80;99.90
18888;DHT22;9576;47.792;9.628;2023-10-31T01:56:49;9.80;99.90
18888;DHT22;9576;47.792;9.628;2023-10-31T01:59:56;9.80;99.90
18888;DHT22;9576;47.792;9.628;2023-10-31T02:02:58;9.80;99.90
18888;DHT22;9576;47.792;9.628;2023-10-31T02:06:03;9.70;99.90
18888;DHT22;9576;47.792;9.628;2023-10-31T02:09:05;9.70;99.90
18888;DHT22;9576;47.792;9.628;2023-10-31T02:12:08;9.70;99.90
18888;DHT22;9576;47.792;9.628;2023-10-31T02:15:10;9.70;99.90
18888;DHT22;9576;47.792;9.628;2023-10-31T02:18:12;9.70;99.90
18888;DHT22;9576;47.792;9.628;2023-10-31T02:21:17;9.70;99.90
18888;DHT22;9576;47.792;9.628;2023-10-31T02:24:22;9.70;99.90
18888;DHT22;9576;47.792;9.628;2023-10-31T02:27:24;9.70;99.90
18888;DHT22;9576;47.792;9.628;2023-10-31T02:30:27;9.60;99.90
18888;DHT22;9576;47.792;9.628;2023-10-31T02:33:29;9.60;99.90
18888;DHT22;9576;47.792;9.628;2023-10-31T02:36:31;9.60;99.90
18888;DHT22;9576;47.792;9.628;2023-10-31T02:39:36;9.60;99.90
18888;DHT22;9576;47.792;9.628;2023-10-31T02:42:39;9.60;99.90
18888;DHT22;9576;47.792;9.628;2023-10-31T02:45:41;9.60;99.90
18888;DHT22;9576;47.792;9.628;2023-10-31T02:48:43;9.60;99.90
18888;DHT22;9576;47.792;9.628;2023-10-31T02:51:45;9.60;99.90
18888;DHT22;9576;47.792;9.628;2023-10-31T02:54:48;9.60;99.90
18888;DHT22;9576;47.792;9.628;2023-10-31T02:57:51;9.60;99.90
18888;DHT22;9576;47.792;9.628;2023-10-31T03:00:53;9.50;99.90
18888;DHT22;9576;47.792;9.628;2023-10-31T03:03:55;9.60;99.90
18888;DHT22;9576;47.792;9.628;2023-10-31T03:06:57;9.50;99.90
18888;DHT22;9576;47.792;9.628;2023-10-31T03:10:00;9.50;99.90
18888;DHT22;9576;47.792;9.628;2023-10-31T03:13:02;9.60;99.90
18888;DHT22;9576;47.792;9.628;2023-10-31T03:16:05;9.60;99.90
18888;DHT22;9576;47.792;9.628;2023-10-31T03:19:07;9.60;99.90
18888;DHT22;9576;47.792;9.628;2023-10-31T03:22:09;9.50;99.90
18888;DHT22;9576;47.792;9.628;2023-10-31T03:25:13;9.60;99.90
18888;DHT22;9576;47.792;9.628;2023-10-31T03:28:19;9.60;99.90
18888;DHT22;9576;47.792;9.628;2023-10-31T03:31:24;9.60;99.90
18888;DHT22;9576;47.792;9.628;2023-10-31T03:34:26;9.60;99.90
18888;DHT22;9576;47.792;9.628;2023-10-31T03:37:28;9.60;99.90
18888;DHT22;9576;47.792;9.628;2023-10-31T03:40:31;9.60;99.90
18888;DHT22;9576;47.792;9.628;2023-10-31T03:43:33;9.60;99.90
18888;DHT22;9576;47.792;9.628;2023-10-31T03:46:36;9.60;99.90
18888;DHT22;9576;47.792;9.628;2023-10-31T03:49:38;9.60;99.90
18888;DHT22;9576;47.792;9.628;2023-10-31T03:52:41;9.60;99.90
18888;DHT22;9576;47.792;9.628;2023-10-31T03:55:44;9.60;99.90
18888;DHT22;9576;47.792;9.628;2023-10-31T03:58:46;9.60;99.90
18888;DHT22;9576;47.792;9.628;2023-10-31T04:01:48;9.50;99.90
18888;DHT22;9576;47.792;9.628;2023-10-31T04:04:50;9.60;99.90
18888;DHT22;9576;47.792;9.628;2023-10-31T04:07:53;9.60;99.90
18888;DHT22;9576;47.792;9.628;2023-10-31T04:10:56;9.60;99.90
18888;DHT22;9576;47.792;9.628;2023-10-31T04:13:58;9.70;99.90
18888;DHT22;9576;47.792;9.628;2023-10-31T04:17:00;9.70;99.90
18888;DHT22;9576;47.792;9.628;2023-10-31T04:20:02;9.70;99.90
18888;DHT22;9576;47.792;9.628;2023-10-31T04:23:05;9.70;99.90
18888;DHT22;9576;47.792;9.628;2023-10-31T04:26:08;9.80;99.90
18888;DHT22;9576;47.792;9.628;2023-10-31T04:29:10;9.70;99.90
18888;DHT22;9576;47.792;9.628;2023-10-31T04:32:12;9.70;99.90
18888;DHT22;9576;47.792;9.628;2023-10-31T04:35:15;9.70;99.90
18888;DHT22;9576;47.792;9.628;2023-10-31T04:38:17;9.70;99.90
18888;DHT22;9576;47.792;9.628;2023-10-31T04:41:20;9.70;99.90
18888;DHT22;9576;47.792;9.628;2023-10-31T04:44:22;9.70;99.90
18888;DHT22;9576;47.792;9.628;2023-10-31T04:47:24;9.70;99.90
18888;DHT22;9576;47.792;9.628;2023-10-31T04:50:26;9.70;99.90
18888;DHT22;9576;47.792;9.628;2023-10-31T04:53:28;9.60;99.90
18888;DHT22;9576;47.792;9.628;2023-10-31T04:56:34;9.60;99.90
18888;DHT22;9576;47.792;9.628;2023-10-31T04:59:36;9.60;99.90
18888;DHT22;9576;47.792;9.628;2023-10-31T05:02:38;9.60;99.90
18888;DHT22;9576;47.792;9.628;2023-10-31T05:05:40;9.50;99.90
18888;DHT22;9576;47.792;9.628;2023-10-31T05:08:42;9.50;99.90
18888;DHT22;9576;47.792;9.628;2023-10-31T05:11:46;9.40;99.90
18888;DHT22;9576;47.792;9.628;2023-10-31T05:14:48;9.50;99.90
18888;DHT22;9576;47.792;9.628;2023-10-31T05:17:50;9.40;99.90
18888;DHT22;9576;47.792;9.628;2023-10-31T05:20:52;9.40;99.90
18888;DHT22;9576;47.792;9.628;2023-10-31T05:23:54;9.40;99.90
18888;DHT22;9576;47.792;9.628;2023-10-31T05:26:57;9.40;99.90
18888;DHT22;9576;47.792;9.628;2023-10-31T05:29:59;9.40;99.90
18888;DHT22;9576;47.792;9.628;2023-10-31T05:33:01;9.30;99.90
18888;DHT22;9576;47.792;9.628;2023-10-31T05:36:04;9.30;99.90
18888;DHT22;9576;47.792;9.628;2023-10-31T05:39:06;9.30;99.90
18888;DHT22;9576;47.792;9.628;2023-10-31T05:42:11;9.20;99.90
18888;DHT22;9576;47.792;9.628;2023-10-31T05:45:13;9.20;99.90
18888;DHT22;9576;47.792;9.628;2023-10-31T05:48:15;9.10;99.90
18888;DHT22;9576;47.792;9.628;2023-10-31T05:51:18;9.10;99.90
18888;DHT22;9576;47.792;9.628;2023-10-31T05:54:21;9.00;99.90
18888;DHT22;9576;47.792;9.628;2023-10-31T05:57:24;9.00;99.90
18888;DHT22;9576;47.792;9.628;2023-10-31T06:00:26;9.00;99.90
18888;DHT22;9576;47.792;9.628;2023-10-31T06:03:28;9.00;99.90
18888;DHT22;9576;47.792;9.628;2023-10-31T06:06:32;8.90;99.90
18888;DHT22;9576;47.792;9.628;2023-10-31T06:09:34;8.90;99.90
18888;DHT22;9576;47.792;9.628;2023-10-31T06:12:38;8.80;99.90
18888;DHT22;9576;47.792;9.628;2023-10-31T06:15:40;8.80;99.90
18888;DHT22;9576;47.792;9.628;2023-10-31T06:18:42;8.80;99.90
18888;DHT22;9576;47.792;9.628;2023-10-31T06:21:44;8.80;99.90
18888;DHT22;9576;47.792;9.628;2023-10-31T06:24:46;8.90;99.90
18888;DHT22;9576;47.792;9.628;2023-10-31T06:27:49;8.90;99.90
18888;DHT22;9576;47.792;9.628;2023-10-31T06:30:52;8.90;99.90
18888;DHT22;9576;47.792;9.628;2023-10-31T06:33:54;8.90;99.90
18888;DHT22;9576;47.792;9.628;2023-10-31T06:36:56;8.90;99.90
18888;DHT22;9576;47.792;9.628;2023-10-31T06:39:58;8.90;99.90
18888;DHT22;9576;47.792;9.628;2023-10-31T06:43:02;8.90;99.90
18888;DHT22;9576;47.792;9.628;2023-10-31T06:46:05;8.90;99.90
18888;DHT22;9576;47.792;9.628;2023-10-31T06:49:07;9.00;99.90
18888;DHT22;9576;47.792;9.628;2023-10-31T06:52:09;9.00;99.90
18888;DHT22;9576;47.792;9.628;2023-10-31T06:55:11;9.00;99.90
18888;DHT22;9576;47.792;9.628;2023-10-31T06:58:15;9.10;99.90
18888;DHT22;9576;47.792;9.628;2023-10-31T07:01:17;9.10;99.90
18888;DHT22;9576;47.792;9.628;2023-10-31T07:04:20;9.20;99.90
18888;DHT22;9576;47.792;9.628;2023-10-31T07:07:22;9.30;99.90
18888;DHT22;9576;47.792;9.628;2023-10-31T07:10:24;9.30;99.90
18888;DHT22;9576;47.792;9.628;2023-10-31T07:13:27;9.30;99.90
18888;DHT22;9576;47.792;9.628;2023-10-31T07:16:31;9.30;99.90
18888;DHT22;9576;47.792;9.628;2023-10-31T07:19:33;9.40;99.90
18888;DHT22;9576;47.792;9.628;2023-10-31T07:22:35;9.40;99.90
18888;DHT22;9576;47.792;9.628;2023-10-31T07:25:37;9.40;99.90
18888;DHT22;9576;47.792;9.628;2023-10-31T07:28:41;9.40;99.90
18888;DHT22;9576;47.792;9.628;2023-10-31T07:31:43;9.40;99.90
18888;DHT22;9576;47.792;9.628;2023-10-31T07:34:46;9.50;99.90
18888;DHT22;9576;47.792;9.628;2023-10-31T07:37:48;9.60;99.90
18888;DHT22;9576;47.792;9.628;2023-10-31T07:40:50;9.60;99.90
18888;DHT22;9576;47.792;9.628;2023-10-31T07:43:53;9.70;99.90
18888;DHT22;9576;47.792;9.628;2023-10-31T07:46:55;9.70;99.90
18888;DHT22;9576;47.792;9.628;2023-10-31T07:49:58;9.70;99.90
18888;DHT22;9576;47.792;9.628;2023-10-31T07:53:00;9.70;99.90
18888;DHT22;9576;47.792;9.628;2023-10-31T07:56:02;9.80;99.90
18888;DHT22;9576;47.792;9.628;2023-10-31T07:59:06;9.80;99.90
18888;DHT22;9576;47.792;9.628;2023-10-31T08:02:08;9.90;99.90
18888;DHT22;9576;47.792;9.628;2023-10-31T08:05:10;9.90;99.90
18888;DHT22;9576;47.792;9.628;2023-10-31T08:08:12;10.00;99.90
18888;DHT22;9576;47.792;9.628;2023-10-31T08:11:14;10.00;99.90
18888;DHT22;9576;47.792;9.628;2023-10-31T08:14:18;10.00;99.90
18888;DHT22;9576;47.792;9.628;2023-10-31T08:17:20;10.00;99.90
18888;DHT22;9576;47.792;9.628;2023-10-31T08:20:22;10.00;99.90
18888;DHT22;9576;47.792;9.628;2023-10-31T08:23:25;10.00;99.90
18888;DHT22;9576;47.792;9.628;2023-10-31T08:26:27;10.10;99.90
18888;DHT22;9576;47.792;9.628;2023-10-31T08:29:31;10.10;99.90
18888;DHT22;9576;47.792;9.628;2023-10-31T08:32:33;10.20;99.90
18888;DHT22;9576;47.792;9.628;2023-10-31T08:35:35;10.30;99.90
18888;DHT22;9576;47.792;9.628;2023-10-31T08:38:38;10.40;99.90
18888;DHT22;9576;47.792;9.628;2023-10-31T08:41:50;10.40;99.90
18888;DHT22;9576;47.792;9.628;2023-10-31T08:44:53;10.50;99.90
18888;DHT22;9576;47.792;9.628;2023-10-31T08:47:55;10.40;99.90
18888;DHT22;9576;47.792;9.628;2023-10-31T08:50:57;10.40;99.90
18888;DHT22;9576;47.792;9.628;2023-10-31T08:53:59;10.50;99.90
18888;DHT22;9576;47.792;9.628;2023-10-31T08:57:01;10.50;99.90
18888;DHT22;9576;47.792;9.628;2023-10-31T09:00:06;10.60;99.90
18888;DHT22;9576;47.792;9.628;2023-10-31T09:03:09;10.70;99.90
18888;DHT22;9576;47.792;9.628;2023-10-31T09:06:11;10.70;99.90
18888;DHT22;9576;47.792;9.628;2023-10-31T09:09:13;10.70;99.90
18888;DHT22;9576;47.792;9.628;2023-10-31T09:12:15;10.70;99.90
18888;DHT22;9576;47.792;9.628;2023-10-31T09:15:19;10.60;99.90
18888;DHT22;9576;47.792;9.628;2023-10-31T09:18:22;10.60;99.90
18888;DHT22;9576;47.792;9.628;2023-10-31T09:21:24;10.70;99.90
18888;DHT22;9576;47.792;9.628;2023-10-31T09:24:26;10.60;99.90
18888;DHT22;9576;47.792;9.628;2023-10-31T09:27:29;10.60;99.90
18888;DHT22;9576;47.792;9.628;2023-10-31T09:30:32;10.50;99.90
18888;DHT22;9576;47.792;9.628;2023-10-31T09:33:34;10.60;99.90
18888;DHT22;9576;47.792;9.628;2023-10-31T09:36:36;10.60;99.90
18888;DHT22;9576;47.792;9.628;2023-10-31T09:39:38;10.60;99.90
18888;DHT22;9576;47.792;9.628;2023-10-31T09:42:41;10.50;99.90
18888;DHT22;9576;47.792;9.628;2023-10-31T09:45:45;10.40;99.90
18888;DHT22;9576;47.792;9.628;2023-10-31T09:48:49;10.40;99.90
18888;DHT22;9576;47.792;9.628;2023-10-31T09:51:51;10.40;99.90
18888;DHT22;9576;47.792;9.628;2023-10-31T09:54:54;10.40;99.90
18888;DHT22;9576;47.792;9.628;2023-10-31T09:57:58;10.40;99.90
18888;DHT22;9576;47.792;9.628;2023-10-31T10:01:01;10.30;99.90
18888;DHT22;9576;47.792;9.628;2023-10-31T10:04:04;10.30;99.90
18888;DHT22;9576;47.792;9.628;2023-10-31T10:07:06;10.20;99.90
18888;DHT22;9576;47.792;9.628;2023-10-31T10:10:10;10.30;99.90
18888;DHT22;9576;47.792;9.628;2023-10-31T10:13:12;10.30;99.90
18888;DHT22;9576;47.792;9.628;2023-10-31T10:16:28;10.30;99.90
18888;DHT22;9576;47.792;9.628;2023-10-31T10:19:30;10.30;99.90
18888;DHT22;9576;47.792;9.628;2023-10-31T10:22:32;10.40;99.90
18888;DHT22;9576;47.792;9.628;2023-10-31T10:25:34;10.40;99.90
18888;DHT22;9576;47.792;9.628;2023-10-31T10:28:36;10.40;99.90
18888;DHT22;9576;47.792;9.628;2023-10-31T10:31:39;10.40;99.90
18888;DHT22;9576;47.792;9.628;2023-10-31T10:34:42;10.30;99.90
18888;DHT22;9576;47.792;9.628;2023-10-31T10:37:46;10.30;99.90
18888;DHT22;9576;47.792;9.628;2023-10-31T10:40:48;10.30;99.90
18888;DHT22;9576;47.792;9.628;2023-10-31T10:43:55;10.30;99.90
18888;DHT22;9576;47.792;9.628;2023-10-31T10:47:02;10.30;99.90
18888;DHT22;9576;47.792;9.628;2023-10-31T10:50:06;10.30;99.90
18888;DHT22;9576;47.792;9.628;2023-10-31T10:53:14;10.30;99.90
18888;DHT22;9576;47.792;9.628;2023-10-31T10:56:26;10.30;99.90
18888;DHT22;9576;47.792;9.628;2023-10-31T10:59:34;10.40;99.90
18888;DHT22;9576;47.792;9.628;2023-10-31T11:02:41;10.40;99.90
18888;DHT22;9576;47.792;9.628;2023-10-31T11:05:44;10.40;99.90
18888;DHT22;9576;47.792;9.628;2023-10-31T11:08:47;10.50;99.90
18888;DHT22;9576;47.792;9.628;2023-10-31T11:11:50;10.70;99.90
18888;DHT22;9576;47.792;9.628;2023-10-31T11:14:53;10.80;99.90
18888;DHT22;9576;47.792;9.628;2023-10-31T11:17:57;10.80;99.90
18888;DHT22;9576;47.792;9.628;2023-10-31T11:20:59;10.90;99.90
18888;DHT22;9576;47.792;9.628;2023-10-31T11:24:01;11.00;99.90
18888;DHT22;9576;47.792;9.628;2023-10-31T11:27:05;11.20;99.90
18888;DHT22;9576;47.792;9.628;2023-10-31T11:30:20;11.20;99.90
18888;DHT22;9576;47.792;9.628;2023-10-31T11:33:24;11.30;99.90
18888;DHT22;9576;47.792;9.628;2023-10-31T11:36:26;11.40;99.90
18888;DHT22;9576;47.792;9.628;2023-10-31T11:39:28;11.50;99.90
18888;DHT22;9576;47.792;9.628;2023-10-31T11:42:31;11.50;99.90
18888;DHT22;9576;47.792;9.628;2023-10-31T11:45:35;11.50;99.90
18888;DHT22;9576;47.792;9.628;2023-10-31T11:48:50;11.50;99.90
18888;DHT22;9576;47.792;9.628;2023-10-31T11:51:53;11.40;99.90
18888;DHT22;9576;47.792;9.628;2023-10-31T11:54:57;11.40;99.90
18888;DHT22;9576;47.792;9.628;2023-10-31T11:57:59;11.40;99.90
18888;DHT22;9576;47.792;9.628;2023-10-31T12:01:03;11.30;99.90
18888;DHT22;9576;47.792;9.628;2023-10-31T12:04:07;11.40;99.90
18888;DHT22;9576;47.792;9.628;2023-10-31T12:07:09;11.50;99.90
18888;DHT22;9576;47.792;9.628;2023-10-31T12:10:11;11.60;99.90
18888;DHT22;9576;47.792;9.628;2023-10-31T12:13:14;11.70;99.90
18888;DHT22;9576;47.792;9.628;2023-10-31T12:16:16;11.90;99.90
18888;DHT22;9576;47.792;9.628;2023-10-31T12:19:21;12.00;99.90
18888;DHT22;9576;47.792;9.628;2023-10-31T12:22:22;12.10;99.90
18888;DHT22;9576;47.792;9.628;2023-10-31T12:25:24;12.10;99.90
18888;DHT22;9576;47.792;9.628;2023-10-31T12:28:27;12.10;99.90
18888;DHT22;9576;47.792;9.628;2023-10-31T12:31:30;11.90;99.90
18888;DHT22;9576;47.792;9.628;2023-10-31T12:34:33;11.70;99.90
18888;DHT22;9576;47.792;9.628;2023-10-31T12:37:35;11.60;99.90
18888;DHT22;9576;47.792;9.628;2023-10-31T12:40:38;11.40;99.90
18888;DHT22;9576;47.792;9.628;2023-10-31T12:43:41;11.30;99.90
18888;DHT22;9576;47.792;9.628;2023-10-31T12:46:43;11.40;99.90
18888;DHT22;9576;47.792;9.628;2023-10-31T12:49:47;11.40;99.90
18888;DHT22;9576;47.792;9.628;2023-10-31T12:52:50;11.50;99.90
18888;DHT22;9576;47.792;9.628;2023-10-31T12:55:53;11.70;99.90
18888;DHT22;9576;47.792;9.628;2023-10-31T12:58:57;12.00;99.90
18888;DHT22;9576;47.792;9.628;2023-10-31T13:01:59;12.10;99.90
18888;DHT22;9576;47.792;9.628;2023-10-31T13:05:10;12.30;99.90
18888;DHT22;9576;47.792;9.628;2023-10-31T13:08:14;12.30;99.90
18888;DHT22;9576;47.792;9.628;2023-10-31T13:11:16;12.10;99.90
18888;DHT22;9576;47.792;9.628;2023-10-31T13:14:23;12.00;99.90
18888;DHT22;9576;47.792;9.628;2023-10-31T13:17:25;11.80;99.90
18888;DHT22;9576;47.792;9.628;2023-10-31T13:20:29;11.60;99.90
18888;DHT22;9576;47.792;9.628;2023-10-31T13:23:32;11.60;99.90
18888;DHT22;9576;47.792;9.628;2023-10-31T13:26:35;11.50;99.90
18888;DHT22;9576;47.792;9.628;2023-10-31T13:29:37;11.50;99.90
18888;DHT22;9576;47.792;9.628;2023-10-31T13:32:39;11.40;99.90
18888;DHT22;9576;47.792;9.628;2023-10-31T13:35:43;11.40;99.90
18888;DHT22;9576;47.792;9.628;2023-10-31T13:38:45;11.30;99.90
18888;DHT22;9576;47.792;9.628;2023-10-31T13:41:49;11.30;99.90
18888;DHT22;9576;47.792;9.628;2023-10-31T13:44:51;11.30;99.90
18888;DHT22;9576;47.792;9.628;2023-10-31T13:47:53;11.40;99.90
18888;DHT22;9576;47.792;9.628;2023-10-31T13:50:57;11.30;99.90
18888;DHT22;9576;47.792;9.628;2023-10-31T13:53:59;11.30;99.90
18888;DHT22;9576;47.792;9.628;2023-10-31T13:57:01;11.20;99.90
18888;DHT22;9576;47.792;9.628;2023-10-31T14:00:03;11.20;99.90
18888;DHT22;9576;47.792;9.628;2023-10-31T14:03:09;11.10;99.90
18888;DHT22;9576;47.792;9.628;2023-10-31T14:06:12;11.10;99.90
18888;DHT22;9576;47.792;9.628;2023-10-31T14:09:15;11.00;99.90
18888;DHT22;9576;47.792;9.628;2023-10-31T14:12:17;11.00;99.90
18888;DHT22;9576;47.792;9.628;2023-10-31T14:15:19;11.00;99.90
18888;DHT22;9576;47.792;9.628;2023-10-31T14:18:22;11.00;99.90
18888;DHT22;9576;47.792;9.628;2023-10-31T14:21:26;11.00;99.90
18888;DHT22;9576;47.792;9.628;2023-10-31T14:24:28;10.90;99.90
18888;DHT22;9576;47.792;9.628;2023-10-31T14:27:30;10.90;99.90
18888;DHT22;9576;47.792;9.628;2023-10-31T14:30:32;11.00;99.90
18888;DHT22;9576;47.792;9.628;2023-10-31T14:33:35;11.10;99.90
18888;DHT22;9576;47.792;9.628;2023-10-31T14:36:38;11.00;99.90
18888;DHT22;9576;47.792;9.628;2023-10-31T14:39:41;11.00;99.90
18888;DHT22;9576;47.792;9.628;2023-10-31T14:42:43;10.90;99.90
18888;DHT22;9576;47.792;9.628;2023-10-31T14:45:45;10.90;99.90
18888;DHT22;9576;47.792;9.628;2023-10-31T14:48:48;10.90;99.90
18888;DHT22;9576;47.792;9.628;2023-10-31T14:51:52;10.90;99.90
18888;DHT22;9576;47.792;9.628;2023-10-31T14:54:54;10.90;99.90
18888;DHT22;9576;47.792;9.628;2023-10-31T14:57:56;11.00;99.90
18888;DHT22;9576;47.792;9.628;2023-10-31T15:00:58;11.00;99.90
18888;DHT22;9576;47.792;9.628;2023-10-31T15:04:00;10.90;99.90
18888;DHT22;9576;47.792;9.628;2023-10-31T15:07:04;10.80;99.90
18888;DHT22;9576;47.792;9.628;2023-10-31T15:10:07;10.80;99.90
18888;DHT22;9576;47.792;9.628;2023-10-31T15:13:09;10.70;99.90
18888;DHT22;9576;47.792;9.628;2023-10-31T15:16:11;10.70;99.90
18888;DHT22;9576;47.792;9.628;2023-10-31T15:19:13;10.60;99.90
18888;DHT22;9576;47.792;9.628;2023-10-31T15:22:17;10.60;99.90
18888;DHT22;9576;47.792;9.628;2023-10-31T15:25:19;10.60;99.90
18888;DHT22;9576;47.792;9.628;2023-10-31T15:28:21;10.50;99.90
18888;DHT22;9576;47.792;9.628;2023-10-31T15:31:25;10.50;99.90
18888;DHT22;9576;47.792;9.628;2023-10-31T15:34:27;10.50;99.90
18888;DHT22;9576;47.792;9.628;2023-10-31T15:37:31;10.40;99.90
18888;DHT22;9576;47.792;9.628;2023-10-31T15:40:33;10.40;99.90
18888;DHT22;9576;47.792;9.628;2023-10-31T15:43:35;10.40;99.90
18888;DHT22;9576;47.792;9.628;2023-10-31T15:46:37;10.40;99.90
18888;DHT22;9576;47.792;9.628;2023-10-31T15:49:39;10.50;99.90
18888;DHT22;9576;47.792;9.628;2023-10-31T15:52:42;10.50;99.90
18888;DHT22;9576;47.792;9.628;2023-10-31T15:55:44;10.40;99.90
18888;DHT22;9576;47.792;9.628;2023-10-31T15:58:47;10.40;99.90
18888;DHT22;9576;47.792;9.628;2023-10-31T16:01:49;10.30;99.90
18888;DHT22;9576;47.792;9.628;2023-10-31T16:04:52;10.20;99.90
18888;DHT22;9576;47.792;9.628;2023-10-31T16:07:55;10.20;99.90
18888;DHT22;9576;47.792;9.628;2023-10-31T16:10:57;10.20;99.90
18888;DHT22;9576;47.792;9.628;2023-10-31T16:13:59;10.20;99.90
18888;DHT22;9576;47.792;9.628;2023-10-31T16:17:02;10.10;99.90
18888;DHT22;9576;47.792;9.628;2023-10-31T16:20:06;10.10;99.90
18888;DHT22;9576;47.792;9.628;2023-10-31T16:23:10;10.10;99.90
18888;DHT22;9576;47.792;9.628;2023-10-31T16:26:12;10.10;99.90
18888;DHT22;9576;47.792;9.628;2023-10-31T16:29:15;10.10;99.90
18888;DHT22;9576;47.792;9.628;2023-10-31T16:32:17;10.20;99.90
18888;DHT22;9576;47.792;9.628;2023-10-31T16:35:19;10.20;99.90
18888;DHT22;9576;47.792;9.628;2023-10-31T16:38:23;10.20;99.90
18888;DHT22;9576;47.792;9.628;2023-10-31T16:41:25;10.10;99.90
18888;DHT22;9576;47.792;9.628;2023-10-31T16:44:27;10.10;99.90
18888;DHT22;9576;47.792;9.628;2023-10-31T16:47:30;10.10;99.90
18888;DHT22;9576;47.792;9.628;2023-10-31T16:50:32;10.00;99.90
18888;DHT22;9576;47.792;9.628;2023-10-31T16:53:37;9.90;99.90
18888;DHT22;9576;47.792;9.628;2023-10-31T16:56:39;9.90;99.90
18888;DHT22;9576;47.792;9.628;2023-10-31T16:59:41;9.80;99.90
18888;DHT22;9576;47.792;9.628;2023-10-31T17:02:44;9.80;99.90
18888;DHT22;9576;47.792;9.628;2023-10-31T17:05:46;9.80;99.90
18888;DHT22;9576;47.792;9.628;2023-10-31T17:08:50;9.70;99.90
18888;DHT22;9576;47.792;9.628;2023-10-31T17:11:52;9.70;99.90
18888;DHT22;9576;47.792;9.628;2023-10-31T17:14:54;9.70;99.90
18888;DHT22;9576;47.792;9.628;2023-10-31T17:17:56;9.70;99.90
18888;DHT22;9576;47.792;9.628;2023-10-31T17:20:58;9.70;99.90
18888;DHT22;9576;47.792;9.628;2023-10-31T17:24:02;9.70;99.90
18888;DHT22;9576;47.792;9.628;2023-10-31T17:27:04;9.80;99.90
18888;DHT22;9576;47.792;9.628;2023-10-31T17:30:08;9.80;99.90
18888;DHT22;9576;47.792;9.628;2023-10-31T17:33:11;9.70;99.90
18888;DHT22;9576;47.792;9.628;2023-10-31T17:36:14;9.70;99.90
18888;DHT22;9576;47.792;9.628;2023-10-31T17:39:17;9.60;99.90
18888;DHT22;9576;47.792;9.628;2023-10-31T17:42:19;9.60;99.90
18888;DHT22;9576;47.792;9.628;2023-10-31T17:45:22;9.60;99.90
18888;DHT22;9576;47.792;9.628;2023-10-31T17:48:25;9.70;99.90
18888;DHT22;9576;47.792;9.628;2023-10-31T17:51:27;9.70;99.90
18888;DHT22;9576;47.792;9.628;2023-10-31T17:54:30;9.70;99.90
18888;DHT22;9576;47.792;9.628;2023-10-31T17:57:32;9.70;99.90
18888;DHT22;9576;47.792;9.628;2023-10-31T18:00:35;9.60;99.90
18888;DHT22;9576;47.792;9.628;2023-10-31T18:03:38;9.60;99.90
18888;DHT22;9576;47.792;9.628;2023-10-31T18:06:40;9.60;99.90
18888;DHT22;9576;47.792;9.628;2023-10-31T18:09:43;9.60;99.90
18888;DHT22;9576;47.792;9.628;2023-10-31T18:12:45;9.60;99.90
18888;DHT22;9576;47.792;9.628;2023-10-31T18:15:49;9.60;99.90
18888;DHT22;9576;47.792;9.628;2023-10-31T18:18:52;9.60;99.90
18888;DHT22;9576;47.792;9.628;2023-10-31T18:21:54;9.60;99.90
18888;DHT22;9576;47.792;9.628;2023-10-31T18:24:59;9.60;99.90
18888;DHT22;9576;47.792;9.628;2023-10-31T18:28:01;9.60;99.90
18888;DHT22;9576;47.792;9.628;2023-10-31T18:31:03;9.60;99.90
18888;DHT22;9576;47.792;9.628;2023-10-31T18:34:05;9.60;99.90
18888;DHT22;9576;47.792;9.628;2023-10-31T18:37:07;9.70;99.90
18888;DHT22;9576;47.792;9.628;2023-10-31T18:40:11;9.70;99.90
18888;DHT22;9576;47.792;9.628;2023-10-31T18:43:13;9.70;99.90
18888;DHT22;9576;47.792;9.628;2023-10-31T18:46:15;9.70;99.90
18888;DHT22;9576;47.792;9.628;2023-10-31T18:49:17;9.70;99.90
18888;DHT22;9576;47.792;9.628;2023-10-31T18:52:19;9.70;99.90
18888;DHT22;9576;47.792;9.628;2023-10-31T18:55:23;9.70;99.90
18888;DHT22;9576;47.792;9.628;2023-10-31T18:58:25;9.70;99.90
18888;DHT22;9576;47.792;9.628;2023-10-31T19:01:27;9.70;99.90
18888;DHT22;9576;47.792;9.628;2023-10-31T19:04:32;9.70;99.90
18888;DHT22;9576;47.792;9.628;2023-10-31T19:07:34;9.70;99.90
18888;DHT22;9576;47.792;9.628;2023-10-31T19:10:38;9.70;99.90
18888;DHT22;9576;47.792;9.628;2023-10-31T19:13:41;9.70;99.90
18888;DHT22;9576;47.792;9.628;2023-10-31T19:16:43;9.80;99.90
18888;DHT22;9576;47.792;9.628;2023-10-31T19:19:45;9.70;99.90
18888;DHT22;9576;47.792;9.628;2023-10-31T19:22:47;9.70;99.90
18888;DHT22;9576;47.792;9.628;2023-10-31T19:25:51;9.70;99.90
18888;DHT22;9576;47.792;9.628;2023-10-31T19:28:53;9.80;99.90
18888;DHT22;9576;47.792;9.628;2023-10-31T19:31:55;9.80;99.90
18888;DHT22;9576;47.792;9.628;2023-10-31T19:34:57;9.80;99.90
18888;DHT22;9576;47.792;9.628;2023-10-31T19:37:59;9.80;99.90
18888;DHT22;9576;47.792;9.628;2023-10-31T19:41:03;9.80;99.90
18888;DHT22;9576;47.792;9.628;2023-10-31T19:44:06;9.80;99.90